createdAt,value
2023-07-25T00:01:26.483Z,99.99
2023-07-25T00:03:53.242Z,99.99
2023-07-25T00:06:20.003Z,99.99
2023-07-25T00:08:46.713Z,99.99
2023-07-25T00:11:14.882Z,99.99
2023-07-25T00:13:41.806Z,99.99
2023-07-25T00:16:08.476Z,99.99
2023-07-25T00:18:37.875Z,99.99
2023-07-25T00:21:04.410Z,99.99
2023-07-25T00:23:32.557Z,99.81
2023-07-25T00:25:59.353Z,99.99
2023-07-25T00:28:25.946Z,99.99
2023-07-25T00:30:52.506Z,99.85
2023-07-25T00:33:20.579Z,99.88
2023-07-25T00:35:54.173Z,99.96
2023-07-25T00:38:20.738Z,99.64
2023-07-25T00:40:47.935Z,99.74
2023-07-25T00:43:14.831Z,99.81
2023-07-25T00:45:41.606Z,99.76
2023-07-25T00:48:08.169Z,99.79
2023-07-25T00:50:34.688Z,99.87
2023-07-25T00:53:02.724Z,99.78
2023-07-25T00:55:30.516Z,99.94
2023-07-25T00:57:57.065Z,99.99
2023-07-25T01:00:23.705Z,99.99
2023-07-25T01:02:50.434Z,99.99
2023-07-25T01:05:17.211Z,99.99
2023-07-25T01:07:44.135Z,99.99
2023-07-25T01:10:10.817Z,99.99
2023-07-25T01:12:37.384Z,99.99
2023-07-25T01:15:04.498Z,99.99
2023-07-25T01:17:33.069Z,99.99
2023-07-25T01:20:00.476Z,99.99
2023-07-25T01:22:27.967Z,99.99
2023-07-25T01:24:55.971Z,99.99
2023-07-25T01:27:23.480Z,99.99
2023-07-25T01:29:50.221Z,99.99
2023-07-25T01:32:19.389Z,99.99
2023-07-25T01:34:45.972Z,99.72
2023-07-25T01:37:12.874Z,99.99
2023-07-25T01:39:39.563Z,99.53
2023-07-25T01:42:06.313Z,99.53
2023-07-25T01:44:32.962Z,99.43
2023-07-25T01:46:59.453Z,99.69
2023-07-25T01:49:26.034Z,99.57
2023-07-25T01:51:52.621Z,99.08
2023-07-25T01:54:19.297Z,99.54
2023-07-25T01:56:48.984Z,99.49
2023-07-25T01:59:38.402Z,99.18
2023-07-25T02:02:05.267Z,99.20
2023-07-25T02:04:32.021Z,99.44
2023-07-25T02:06:58.682Z,99.55
2023-07-25T02:09:25.276Z,99.47
2023-07-25T02:11:51.922Z,99.61
2023-07-25T02:14:18.508Z,99.54
2023-07-25T02:16:45.224Z,99.38
2023-07-25T02:19:11.984Z,99.23
2023-07-25T02:21:38.600Z,99.31
2023-07-25T02:24:05.448Z,99.58
2023-07-25T02:26:32.596Z,99.78
2023-07-25T02:28:59.224Z,99.77
2023-07-25T02:31:25.925Z,99.92
2023-07-25T02:33:54.959Z,99.95
2023-07-25T02:36:21.556Z,99.94
2023-07-25T02:38:48.182Z,99.11
2023-07-25T02:41:14.739Z,98.77
2023-07-25T02:43:41.414Z,99.34
2023-07-25T02:46:08.101Z,98.78
2023-07-25T02:48:34.791Z,98.88
2023-07-25T02:51:01.537Z,98.82
2023-07-25T02:53:28.095Z,98.95
2023-07-25T02:55:57.973Z,99.00
2023-07-25T02:58:24.731Z,98.95
2023-07-25T03:00:51.706Z,98.73
2023-07-25T03:03:18.366Z,99.01
2023-07-25T03:05:45.092Z,98.96
2023-07-25T03:08:11.974Z,98.88
2023-07-25T03:10:38.740Z,98.11
2023-07-25T03:13:05.593Z,98.35
2023-07-25T03:15:32.201Z,98.16
2023-07-25T03:17:58.799Z,98.41
2023-07-25T03:20:25.432Z,98.08
2023-07-25T03:22:52.093Z,97.96
2023-07-25T03:25:18.850Z,98.08
2023-07-25T03:27:45.577Z,98.18
2023-07-25T03:30:12.326Z,98.35
2023-07-25T03:32:38.937Z,98.37
2023-07-25T03:35:06.359Z,97.70
2023-07-25T03:37:33.046Z,98.27
2023-07-25T03:39:59.652Z,98.17
2023-07-25T03:42:26.316Z,98.18
2023-07-25T03:44:53.458Z,98.26
2023-07-25T03:47:20.090Z,98.12
2023-07-25T03:49:47.068Z,98.21
2023-07-25T03:52:13.624Z,98.36
2023-07-25T03:54:40.177Z,98.39
2023-07-25T03:57:07.228Z,98.55
2023-07-25T03:59:33.865Z,98.81
2023-07-25T04:02:00.485Z,98.71
2023-07-25T04:04:27.952Z,98.67
2023-07-25T04:06:54.601Z,98.22
2023-07-25T04:09:21.351Z,98.30
2023-07-25T04:11:48.009Z,97.85
2023-07-25T04:14:14.971Z,98.08
2023-07-25T04:16:41.631Z,98.06
2023-07-25T04:19:08.268Z,98.30
2023-07-25T04:21:34.908Z,97.95
2023-07-25T04:24:01.625Z,97.78
2023-07-25T04:26:28.384Z,97.70
2023-07-25T04:28:55.158Z,97.86
2023-07-25T04:31:21.760Z,97.43
2023-07-25T04:33:48.474Z,97.87
2023-07-25T04:36:15.248Z,97.69
2023-07-25T04:38:42.198Z,97.77
2023-07-25T04:41:08.883Z,97.08
2023-07-25T04:43:35.553Z,97.36
2023-07-25T04:46:02.290Z,96.62
2023-07-25T04:48:29.012Z,96.44
2023-07-25T04:50:55.592Z,97.13
2023-07-25T04:53:22.196Z,96.85
2023-07-25T04:55:48.923Z,96.89
2023-07-25T04:58:15.643Z,97.19
2023-07-25T05:00:42.403Z,97.09
2023-07-25T05:03:09.077Z,96.50
2023-07-25T05:05:36.630Z,96.28
2023-07-25T05:08:03.388Z,96.67
2023-07-25T05:10:30.246Z,94.80
2023-07-25T05:12:56.975Z,95.04
2023-07-25T05:15:24.660Z,95.25
2023-07-25T05:17:51.348Z,94.53
2023-07-25T05:20:18.196Z,94.67
2023-07-25T05:22:44.929Z,93.78
2023-07-25T05:25:11.565Z,94.16
2023-07-25T05:27:38.190Z,94.46
2023-07-25T05:30:06.011Z,93.69
2023-07-25T05:32:33.843Z,94.96
2023-07-25T05:35:02.357Z,94.13
2023-07-25T05:37:39.393Z,93.63
2023-07-25T05:40:06.873Z,92.00
2023-07-25T05:42:33.720Z,92.61
2023-07-25T05:45:01.065Z,92.89
2023-07-25T05:47:29.239Z,91.81
2023-07-25T05:49:56.575Z,91.40
2023-07-25T05:52:23.287Z,88.81
2023-07-25T05:54:50.940Z,90.62
2023-07-25T05:57:17.696Z,90.94
2023-07-25T05:59:44.981Z,87.95
2023-07-25T06:02:12.376Z,89.58
2023-07-25T06:04:39.840Z,88.63
2023-07-25T06:07:07.255Z,87.35
2023-07-25T06:10:01.684Z,89.42
2023-07-25T06:12:28.373Z,87.06
2023-07-25T06:14:55.100Z,87.93
2023-07-25T06:17:21.826Z,87.22
2023-07-25T06:19:49.384Z,88.09
2023-07-25T06:22:16.713Z,89.77
2023-07-25T06:24:43.740Z,88.51
2023-07-25T06:27:11.496Z,87.09
2023-07-25T06:29:38.062Z,87.30
2023-07-25T06:32:05.013Z,85.23
2023-07-25T06:34:31.663Z,85.78
2023-07-25T06:36:59.081Z,85.42
2023-07-25T06:39:25.682Z,86.14
2023-07-25T06:41:52.449Z,85.93
2023-07-25T06:44:20.891Z,77.54
2023-07-25T06:46:48.004Z,74.36
2023-07-25T06:49:14.832Z,71.56
2023-07-25T06:51:41.682Z,69.33
2023-07-25T06:54:08.456Z,67.01
2023-07-25T06:56:35.015Z,65.55
2023-07-25T06:59:01.668Z,60.31
2023-07-25T07:01:29.513Z,60.14
2023-07-25T07:03:56.690Z,60.47
2023-07-25T07:06:23.539Z,63.44
2023-07-25T07:08:50.441Z,64.28
2023-07-25T07:11:18.947Z,60.94
2023-07-25T07:13:45.555Z,59.71
2023-07-25T07:16:12.503Z,58.14
2023-07-25T07:18:40.036Z,61.98
2023-07-25T07:21:06.976Z,66.06
2023-07-25T07:23:35.586Z,66.06
2023-07-25T07:26:02.192Z,67.50
2023-07-25T07:28:28.933Z,68.96
2023-07-25T07:30:55.552Z,64.89
2023-07-25T07:33:22.435Z,65.58
2023-07-25T07:35:49.043Z,64.32
2023-07-25T07:38:15.648Z,59.22
2023-07-25T07:40:42.470Z,58.82
2023-07-25T07:43:09.156Z,58.72
2023-07-25T07:45:35.872Z,57.69
2023-07-25T07:48:02.563Z,56.14
2023-07-25T07:50:34.075Z,57.19
2023-07-25T07:53:00.921Z,58.85
2023-07-25T07:55:28.222Z,63.16
2023-07-25T07:57:54.876Z,63.58
2023-07-25T08:00:21.541Z,58.38
2023-07-25T08:02:48.498Z,58.73
2023-07-25T08:05:15.188Z,62.44
2023-07-25T08:07:42.556Z,61.04
2023-07-25T08:10:10.015Z,60.84
2023-07-25T08:12:37.111Z,55.31
2023-07-25T08:15:04.520Z,52.40
2023-07-25T08:17:31.216Z,48.71
2023-07-25T08:19:57.902Z,54.16
2023-07-25T08:22:24.541Z,56.81
2023-07-25T08:24:53.252Z,60.93
2023-07-25T08:27:20.029Z,61.83
2023-07-25T08:29:46.798Z,55.02
2023-07-25T08:32:14.465Z,52.33
2023-07-25T08:34:41.518Z,48.67
2023-07-25T08:37:08.467Z,47.15
2023-07-25T08:39:35.271Z,47.92
2023-07-25T08:42:08.018Z,48.95
2023-07-25T08:44:36.419Z,50.97
2023-07-25T08:47:22.347Z,49.45
2023-07-25T08:49:53.795Z,54.51
2023-07-25T08:52:21.596Z,53.17
2023-07-25T08:54:50.307Z,51.62
2023-07-25T08:57:17.739Z,53.91
2023-07-25T08:59:44.866Z,55.17
2023-07-25T09:02:12.474Z,50.06
2023-07-25T09:04:39.621Z,45.65
2023-07-25T09:07:07.065Z,43.81
2023-07-25T09:09:33.944Z,43.62
2023-07-25T09:12:00.650Z,47.84
2023-07-25T09:14:27.944Z,48.94
2023-07-25T09:16:54.998Z,50.74
2023-07-25T09:19:22.013Z,53.45
2023-07-25T09:21:50.057Z,48.55
2023-07-25T09:24:17.110Z,46.80
2023-07-25T09:26:51.189Z,47.99
2023-07-25T09:29:18.929Z,46.14
2023-07-25T09:31:47.437Z,39.90
2023-07-25T09:34:17.374Z,41.85
2023-07-25T09:36:48.813Z,41.69
2023-07-25T09:39:16.523Z,42.19
2023-07-25T09:41:44.218Z,42.55
2023-07-25T09:44:10.934Z,43.41
2023-07-25T09:46:37.653Z,46.16
2023-07-25T09:49:04.937Z,47.82
2023-07-25T09:51:32.769Z,47.20
2023-07-25T09:53:59.683Z,49.25
2023-07-25T09:56:27.838Z,49.40
2023-07-25T10:01:25.428Z,45.24
2023-07-25T10:03:53.415Z,48.10
2023-07-25T10:06:20.462Z,49.32
2023-07-25T10:08:48.335Z,53.74
2023-07-25T10:11:15.071Z,49.83
2023-07-25T10:13:43.081Z,52.05
2023-07-25T10:16:11.679Z,54.29
2023-07-25T10:18:38.576Z,53.36
2023-07-25T10:21:05.455Z,54.96
2023-07-25T10:23:37.483Z,55.55
2023-07-25T10:26:12.400Z,53.97
2023-07-25T10:28:39.226Z,54.16
2023-07-25T10:31:22.516Z,55.27
2023-07-25T10:33:59.408Z,53.53
2023-07-25T10:36:26.608Z,54.73
2023-07-25T10:39:04.689Z,52.63
2023-07-25T10:41:31.740Z,53.57
2023-07-25T10:44:03.356Z,54.65
2023-07-25T10:46:32.678Z,53.60
2023-07-25T10:49:01.638Z,50.84
2023-07-25T10:51:47.162Z,46.68
2023-07-25T10:54:13.828Z,43.06
2023-07-25T10:56:41.478Z,46.30
2023-07-25T10:59:13.044Z,45.28
2023-07-25T11:01:45.440Z,49.16
2023-07-25T11:04:28.482Z,50.36
2023-07-25T11:07:00.496Z,49.17
2023-07-25T11:09:27.840Z,48.45
2023-07-25T11:11:55.607Z,48.18
2023-07-25T11:14:23.285Z,51.86
2023-07-25T11:16:52.314Z,50.33
2023-07-25T11:19:20.346Z,51.56
2023-07-25T11:21:47.469Z,51.36
2023-07-25T11:24:14.374Z,49.40
2023-07-25T11:26:41.528Z,50.23
2023-07-25T11:29:11.553Z,48.25
2023-07-25T11:31:42.990Z,41.54
2023-07-25T11:34:11.839Z,41.94
2023-07-25T11:36:40.153Z,41.56
2023-07-25T11:39:08.628Z,43.32
2023-07-25T11:41:39.684Z,41.12
2023-07-25T11:44:14.647Z,42.21
2023-07-25T11:46:44.369Z,41.75
2023-07-25T11:49:20.209Z,44.85
2023-07-25T11:51:53.333Z,47.21
2023-07-25T11:54:20.571Z,51.13
2023-07-25T11:56:47.331Z,50.92
2023-07-25T11:59:14.218Z,53.55
2023-07-25T12:01:40.889Z,52.81
2023-07-25T12:04:16.867Z,53.36
2023-07-25T12:06:43.864Z,55.13
2023-07-25T12:09:10.545Z,54.07
2023-07-25T12:11:44.588Z,49.18
2023-07-25T12:14:13.512Z,51.17
2023-07-25T12:16:45.604Z,52.65
2023-07-25T12:19:14.365Z,52.36
2023-07-25T12:21:45.494Z,52.42
2023-07-25T12:24:16.572Z,51.11
2023-07-25T12:26:55.333Z,51.99
2023-07-25T12:29:25.903Z,54.21
2023-07-25T12:31:53.920Z,53.00
2023-07-25T12:34:21.861Z,52.76
2023-07-25T12:36:51.579Z,50.53
2023-07-25T12:39:18.479Z,51.21
2023-07-25T12:41:46.006Z,49.90
2023-07-25T12:44:13.110Z,48.45
2023-07-25T12:46:40.431Z,46.93
2023-07-25T12:49:08.682Z,41.97
2023-07-25T12:51:35.774Z,41.66
2023-07-25T12:54:03.344Z,43.23
2023-07-25T12:56:30.877Z,44.68
2023-07-25T12:58:57.862Z,42.88
2023-07-25T13:01:25.251Z,44.56
2023-07-25T13:03:52.206Z,45.39
2023-07-25T13:06:19.104Z,45.37
2023-07-25T13:08:45.679Z,45.58
2023-07-25T13:11:12.810Z,43.62
2023-07-25T13:13:39.498Z,45.51
2023-07-25T13:16:07.616Z,42.84
2023-07-25T13:18:34.331Z,44.43
2023-07-25T13:21:02.067Z,45.89
2023-07-25T13:23:28.814Z,46.87
2023-07-25T13:25:55.518Z,46.93
2023-07-25T13:28:22.292Z,48.02
2023-07-25T13:30:48.966Z,48.25
2023-07-25T13:33:15.613Z,48.20
2023-07-25T13:35:42.271Z,49.41
2023-07-25T13:38:08.909Z,53.23
2023-07-25T13:40:35.668Z,54.12
2023-07-25T13:43:02.875Z,52.25
2023-07-25T13:45:45.673Z,53.75
2023-07-25T13:48:17.743Z,53.07
2023-07-25T13:50:52.740Z,49.93
2023-07-25T13:53:21.136Z,50.66
2023-07-25T13:55:47.818Z,49.78
2023-07-25T13:58:23.689Z,47.50
2023-07-25T14:00:51.125Z,48.92
2023-07-25T14:03:17.775Z,45.85
2023-07-25T14:05:44.680Z,44.94
2023-07-25T14:08:11.669Z,45.44
2023-07-25T14:10:38.463Z,45.53
2023-07-25T14:13:05.990Z,45.86
2023-07-25T14:15:33.518Z,46.90
2023-07-25T14:18:01.484Z,44.76
2023-07-25T14:20:29.069Z,46.62
2023-07-25T14:22:56.026Z,46.83
2023-07-25T14:25:22.899Z,47.07
2023-07-25T14:27:50.182Z,46.76
2023-07-25T14:30:17.142Z,45.66
2023-07-25T14:32:43.877Z,46.32
2023-07-25T14:35:10.622Z,45.41
2023-07-25T14:37:53.645Z,46.97
2023-07-25T14:40:22.549Z,46.67
2023-07-25T14:42:49.288Z,44.87
2023-07-25T14:45:16.270Z,45.25
2023-07-25T14:47:43.287Z,44.29
2023-07-25T14:50:10.505Z,45.76
2023-07-25T14:52:37.184Z,47.84
2023-07-25T14:55:03.973Z,46.24
2023-07-25T14:57:31.576Z,50.54
2023-07-25T14:59:58.335Z,50.74
2023-07-25T15:02:25.131Z,46.41
2023-07-25T15:04:52.057Z,46.99
2023-07-25T15:07:18.732Z,48.81
2023-07-25T15:09:45.524Z,48.84
2023-07-25T15:12:12.253Z,49.12
2023-07-25T15:14:39.262Z,47.99
2023-07-25T15:17:06.069Z,48.96
2023-07-25T15:19:32.989Z,44.62
2023-07-25T15:21:59.625Z,46.91
2023-07-25T15:24:26.331Z,43.52
2023-07-25T15:26:53.326Z,46.93
2023-07-25T15:29:20.013Z,48.53
2023-07-25T15:31:48.346Z,48.93
2023-07-25T15:34:14.994Z,51.10
2023-07-25T15:36:43.404Z,50.36
2023-07-25T15:39:12.261Z,52.67
2023-07-25T15:41:39.408Z,51.77
2023-07-25T15:44:06.053Z,52.53
2023-07-25T15:46:32.690Z,52.90
2023-07-25T15:48:59.413Z,52.20
2023-07-25T15:51:26.203Z,51.64
2023-07-25T15:53:52.850Z,49.11
2023-07-25T15:56:19.481Z,49.80
2023-07-25T15:58:47.976Z,49.79
2023-07-25T16:01:14.954Z,51.88
2023-07-25T16:03:46.419Z,55.47
2023-07-25T16:06:13.610Z,51.29
2023-07-25T16:08:40.248Z,55.16
2023-07-25T16:11:06.945Z,49.50
2023-07-25T16:13:40.117Z,53.45
2023-07-25T16:16:07.297Z,54.25
2023-07-25T16:18:34.323Z,56.49
2023-07-25T16:21:01.048Z,52.39
2023-07-25T16:23:27.714Z,52.43
2023-07-25T16:25:57.610Z,51.78
2023-07-25T16:28:24.350Z,53.14
2023-07-25T16:30:53.003Z,54.50
2023-07-25T16:33:22.483Z,54.50
2023-07-25T16:35:49.062Z,54.27
2023-07-25T16:38:16.722Z,55.49
2023-07-25T16:40:44.101Z,54.52
2023-07-25T16:43:10.857Z,55.78
2023-07-25T16:45:37.588Z,54.18
2023-07-25T16:48:04.634Z,55.60
2023-07-25T16:50:31.800Z,54.26
2023-07-25T16:52:58.579Z,55.13
2023-07-25T16:55:25.132Z,55.70
2023-07-25T16:57:51.789Z,54.07
2023-07-25T17:00:18.739Z,52.80
2023-07-25T17:02:45.430Z,55.22
2023-07-25T17:05:13.211Z,55.47
2023-07-25T17:07:40.397Z,55.81
2023-07-25T17:10:07.509Z,56.59
2023-07-25T17:12:34.101Z,56.57
2023-07-25T17:15:00.739Z,55.85
2023-07-25T17:17:28.068Z,56.74
2023-07-25T17:19:54.855Z,56.44
2023-07-25T17:22:21.654Z,57.98
2023-07-25T17:24:48.332Z,58.50
2023-07-25T17:27:15.524Z,57.02
2023-07-25T17:29:42.120Z,57.90
2023-07-25T17:32:08.788Z,57.88
2023-07-25T17:34:35.412Z,58.54
2023-07-25T17:37:02.051Z,59.10
2023-07-25T17:39:28.723Z,60.87
2023-07-25T17:41:55.289Z,59.75
2023-07-25T17:44:22.116Z,59.40
2023-07-25T17:46:48.746Z,59.10
2023-07-25T17:49:15.379Z,60.10
2023-07-25T17:51:42.120Z,59.05
2023-07-25T17:54:08.843Z,60.74
2023-07-25T17:56:35.484Z,61.60
2023-07-25T17:59:02.117Z,60.28
2023-07-25T18:01:28.761Z,61.38
2023-07-25T18:03:55.523Z,60.24
2023-07-25T18:06:22.237Z,61.36
2023-07-25T18:08:48.861Z,60.91
2023-07-25T18:11:15.503Z,61.84
2023-07-25T18:13:42.186Z,62.35
2023-07-25T18:16:08.753Z,62.91
2023-07-25T18:18:35.793Z,62.26
2023-07-25T18:21:02.489Z,64.71
2023-07-25T18:23:29.137Z,66.67
2023-07-25T18:26:02.862Z,63.55
2023-07-25T18:28:29.567Z,64.35
2023-07-25T18:30:56.425Z,63.98
2023-07-25T18:33:23.691Z,64.65
2023-07-25T18:35:50.319Z,65.72
2023-07-25T18:38:16.849Z,63.40
2023-07-25T18:40:43.451Z,63.08
2023-07-25T18:43:13.248Z,63.58
2023-07-25T18:45:39.930Z,62.99
2023-07-25T18:48:06.520Z,62.78
2023-07-25T18:50:33.188Z,64.83
2023-07-25T18:52:59.898Z,64.72
2023-07-25T18:55:26.548Z,64.35
2023-07-25T18:57:53.440Z,64.92
2023-07-25T19:00:20.211Z,65.35
2023-07-25T19:02:46.920Z,63.11
2023-07-25T19:05:13.563Z,62.07
2023-07-25T19:07:40.434Z,61.73
2023-07-25T19:10:07.655Z,62.60
2023-07-25T19:12:34.266Z,63.07
2023-07-25T19:15:01.003Z,63.17
2023-07-25T19:17:27.640Z,64.19
2023-07-25T19:19:54.412Z,64.67
2023-07-25T19:22:21.122Z,65.22
2023-07-25T19:24:47.799Z,64.37
2023-07-25T19:27:14.426Z,65.71
2023-07-25T19:29:41.216Z,65.39
2023-07-25T19:32:08.349Z,64.36
2023-07-25T19:34:38.024Z,65.02
2023-07-25T19:37:04.837Z,65.13
2023-07-25T19:39:34.945Z,65.15
2023-07-25T19:42:02.427Z,64.09
2023-07-25T19:44:29.254Z,64.91
2023-07-25T19:46:56.011Z,65.66
2023-07-25T19:49:22.833Z,66.05
2023-07-25T19:51:49.492Z,67.26
2023-07-25T19:54:16.224Z,67.62
2023-07-25T19:56:43.526Z,67.23
2023-07-25T19:59:10.176Z,67.24
2023-07-25T20:01:36.880Z,67.76
2023-07-25T20:04:03.563Z,68.43
2023-07-25T20:06:30.533Z,69.25
2023-07-25T20:09:00.010Z,68.06
2023-07-25T20:11:28.156Z,69.26
2023-07-25T20:13:54.742Z,68.81
2023-07-25T20:16:21.402Z,69.63
2023-07-25T20:18:48.185Z,70.48
2023-07-25T20:21:15.166Z,70.57
2023-07-25T20:26:22.748Z,70.38
2023-07-25T20:28:49.547Z,70.89
2023-07-25T20:31:16.163Z,71.53
2023-07-25T20:33:42.975Z,72.22
2023-07-25T20:36:09.767Z,72.48
2023-07-25T20:38:36.457Z,72.86
2023-07-25T20:41:03.720Z,73.30
2023-07-25T20:43:30.378Z,73.54
2023-07-25T20:46:03.033Z,73.84
2023-07-25T20:48:31.865Z,73.94
2023-07-25T20:51:00.189Z,75.09
2023-07-25T20:53:26.888Z,75.07
2023-07-25T20:55:57.366Z,75.07
2023-07-25T20:58:24.287Z,75.33
2023-07-25T21:00:51.461Z,75.79
2023-07-25T21:03:18.147Z,75.78
2023-07-25T21:05:44.944Z,76.24
2023-07-25T21:08:11.768Z,76.28
2023-07-25T21:10:38.421Z,76.54
2023-07-25T21:13:05.067Z,76.78
2023-07-25T21:15:31.736Z,75.36
2023-07-25T21:18:11.088Z,76.21
2023-07-25T21:20:38.180Z,75.71
2023-07-25T21:23:04.792Z,75.42
2023-07-25T21:25:31.413Z,75.09
2023-07-25T21:27:58.195Z,75.96
2023-07-25T21:30:24.846Z,73.82
2023-07-25T21:32:51.452Z,75.26
2023-07-25T21:35:18.752Z,75.36
2023-07-25T21:37:45.323Z,75.65
2023-07-25T21:40:12.459Z,76.44
2023-07-25T21:42:39.078Z,75.86
2023-07-25T21:45:06.377Z,75.25
2023-07-25T21:47:33.054Z,75.43
2023-07-25T21:49:59.843Z,75.89
2023-07-25T21:52:26.451Z,75.94
2023-07-25T21:54:53.037Z,76.22
2023-07-25T21:57:19.693Z,75.19
2023-07-25T21:59:46.356Z,76.21
2023-07-25T22:02:20.365Z,75.04
2023-07-25T22:04:47.288Z,75.46
2023-07-25T22:07:14.014Z,76.16
2023-07-25T22:09:40.742Z,75.40
2023-07-25T22:12:08.962Z,74.27
2023-07-25T22:14:36.130Z,75.10
2023-07-25T22:17:04.153Z,75.74
2023-07-25T22:19:30.981Z,75.17
2023-07-25T22:21:58.173Z,74.58
2023-07-25T22:24:26.423Z,75.16
2023-07-25T22:26:53.084Z,75.05
2023-07-25T22:29:19.730Z,75.52
2023-07-25T22:31:47.367Z,74.77
2023-07-25T22:34:14.130Z,75.91
2023-07-25T22:36:40.797Z,75.84
2023-07-25T22:39:07.402Z,76.27
2023-07-25T22:41:34.260Z,75.27
2023-07-25T22:44:00.818Z,75.89
2023-07-25T22:46:27.627Z,76.01
2023-07-25T22:48:54.316Z,76.14
2023-07-25T22:51:20.917Z,75.81
2023-07-25T22:53:47.580Z,75.53
2023-07-25T22:56:14.202Z,75.43
2023-07-25T22:58:40.821Z,75.33
2023-07-25T23:01:07.519Z,76.15
2023-07-25T23:03:37.126Z,76.39
2023-07-25T23:06:04.084Z,76.35
2023-07-25T23:08:30.756Z,76.86
2023-07-25T23:10:57.533Z,76.71
2023-07-25T23:13:24.255Z,76.98
2023-07-25T23:15:51.005Z,77.13
2023-07-25T23:18:17.872Z,76.51
2023-07-25T23:20:46.611Z,76.11
2023-07-25T23:23:13.747Z,76.50
2023-07-25T23:25:40.476Z,76.63
2023-07-25T23:28:07.130Z,76.53
2023-07-25T23:30:33.818Z,76.59
2023-07-25T23:33:00.457Z,76.03
2023-07-25T23:35:27.225Z,75.42
2023-07-25T23:37:53.816Z,74.05
2023-07-25T23:40:20.428Z,74.31
2023-07-25T23:42:47.085Z,74.81
2023-07-25T23:45:13.702Z,75.17
2023-07-25T23:47:40.963Z,74.08
2023-07-25T23:50:07.957Z,74.19
2023-07-25T23:52:37.436Z,73.67
2023-07-25T23:55:04.518Z,73.53
2023-07-25T23:57:31.231Z,73.60
2023-07-25T23:59:57.870Z,72.96
